Terminal Aerodrome Forecast
Issued by NWS Wilmington, OH

Current Version | Previous Version | Text Only | Print | Product List | Glossary Off
Versions: 1 2 3 4 5 6 7 8 9 10 11 12 13 14 15 16 17 18 19 20 21 22

141
FTUS41 KILN 111435 AAA
TAFCVG
TAF AMD
KCVG 111435Z 1115/1218 29004KT P6SM SKC
     FM111700 29004KT P6SM SCT030
     FM112300 VRB03KT P6SM BKN120
     FM121000 VRB03KT P6SM -SHSN OVC040
     FM121400 24006KT 5SM -SHSN OVC025=

USA.gov is the U.S. government's official web portal to all federal, state and local government web resources and services.